createdAt,value
2022-11-25T00:00:14.567Z,4.57
2022-11-25T00:02:59.687Z,3.53
2022-11-25T00:05:45.055Z,3.13
2022-11-25T00:08:30.036Z,3.30
2022-11-25T00:11:15.973Z,3.25
2022-11-25T00:14:01.238Z,3.65
2022-11-25T00:16:48.660Z,3.53
2022-11-25T00:19:34.243Z,4.03
2022-11-25T00:22:19.481Z,3.95
2022-11-25T00:25:05.211Z,3.92
2022-11-25T00:27:52.976Z,3.72
2022-11-25T00:30:38.330Z,3.63
2022-11-25T00:33:23.379Z,3.55
2022-11-25T00:36:36.330Z,3.42
2022-11-25T00:39:24.488Z,3.67
2022-11-25T00:42:29.148Z,3.70
2022-11-25T00:45:14.386Z,3.22
2022-11-25T00:47:59.563Z,4.30
2022-11-25T00:50:44.395Z,3.70
2022-11-25T00:53:31.064Z,4.00
2022-11-25T00:56:16.949Z,3.75
2022-11-25T00:59:03.540Z,3.45
2022-11-25T01:01:48.911Z,3.95
2022-11-25T01:04:34.139Z,3.95
2022-11-25T01:07:19.781Z,3.92
2022-11-25T01:10:05.549Z,3.33
2022-11-25T01:12:50.830Z,4.75
2022-11-25T01:15:37.760Z,3.80
2022-11-25T01:18:23.345Z,3.78
2022-11-25T01:21:09.864Z,3.45
2022-11-25T01:23:55.256Z,3.47
2022-11-25T01:26:41.026Z,4.35
2022-11-25T01:29:26.504Z,3.42
2022-11-25T01:32:11.779Z,3.92
2022-11-25T01:34:56.815Z,4.53
2022-11-25T01:37:41.794Z,3.30
2022-11-25T01:40:26.991Z,3.63
2022-11-25T01:43:15.775Z,3.25
2022-11-25T01:46:06.756Z,3.25
2022-11-25T01:48:54.637Z,3.72
2022-11-25T01:51:48.436Z,3.97
2022-11-25T01:54:40.472Z,4.05
2022-11-25T01:57:30.714Z,3.72
2022-11-25T02:00:17.047Z,4.32
2022-11-25T02:03:02.350Z,4.40
2022-11-25T02:06:02.868Z,4.10
2022-11-25T02:08:51.544Z,4.13
2022-11-25T02:11:40.243Z,3.92
2022-11-25T02:14:27.040Z,4.20
2022-11-25T02:17:12.466Z,4.38
2022-11-25T02:20:08.774Z,4.32
2022-11-25T02:23:09.143Z,4.07
2022-11-25T02:25:54.776Z,3.97
2022-11-25T02:28:40.046Z,4.82
2022-11-25T02:31:25.473Z,5.13
2022-11-25T02:34:10.664Z,4.50
2022-11-25T02:36:56.740Z,4.07
2022-11-25T02:39:42.320Z,4.07
2022-11-25T02:42:29.623Z,3.95
2022-11-25T02:45:17.724Z,4.05
2022-11-25T02:48:03.022Z,3.95
2022-11-25T02:50:48.784Z,3.50
2022-11-25T02:53:33.986Z,4.15
2022-11-25T02:56:21.834Z,3.88
2022-11-25T02:59:07.666Z,4.85
2022-11-25T03:01:53.143Z,3.80
2022-11-25T03:04:38.849Z,5.60
2022-11-25T03:07:24.046Z,4.38
2022-11-25T03:10:09.755Z,4.72
2022-11-25T03:12:54.703Z,4.35
2022-11-25T03:15:43.878Z,4.85
2022-11-25T03:18:29.096Z,4.70
2022-11-25T03:21:14.440Z,4.30
2022-11-25T03:24:00.368Z,4.50
2022-11-25T03:26:45.342Z,3.80
2022-11-25T03:29:30.667Z,3.80
2022-11-25T03:32:16.003Z,3.95
2022-11-25T03:35:01.089Z,4.28
2022-11-25T03:37:46.784Z,4.03
2022-11-25T03:40:32.076Z,4.75
2022-11-25T03:43:17.225Z,5.35
2022-11-25T03:46:02.511Z,4.38
2022-11-25T03:48:47.567Z,4.47
2022-11-25T03:51:32.446Z,4.10
2022-11-25T03:54:17.790Z,4.05
2022-11-25T03:57:02.855Z,3.90
2022-11-25T03:59:48.022Z,4.55
2022-11-25T04:02:33.244Z,4.13
2022-11-25T04:05:18.705Z,4.13
2022-11-25T04:08:04.029Z,4.70
2022-11-25T04:10:50.416Z,3.95
2022-11-25T04:13:35.562Z,3.40
2022-11-25T04:16:24.938Z,4.72
2022-11-25T04:21:55.331Z,6.30
2022-11-25T04:24:40.795Z,5.50
2022-11-25T04:27:26.115Z,5.10
2022-11-25T04:30:12.003Z,4.68
2022-11-25T04:32:57.347Z,4.53
2022-11-25T04:35:42.874Z,4.25
2022-11-25T04:38:28.282Z,3.67
2022-11-25T04:41:13.600Z,3.72
2022-11-25T04:44:01.995Z,3.00
2022-11-25T04:46:47.313Z,2.70
2022-11-25T04:49:32.410Z,3.75
2022-11-25T04:52:17.894Z,3.42
2022-11-25T04:55:03.563Z,3.80
2022-11-25T04:57:48.567Z,2.85
2022-11-25T05:00:33.671Z,3.35
2022-11-25T05:03:18.615Z,3.00
2022-11-25T05:06:08.214Z,3.95
2022-11-25T05:11:38.408Z,3.10
2022-11-25T05:14:25.305Z,3.60
2022-11-25T05:17:17.083Z,2.95
2022-11-25T05:20:02.439Z,3.47
2022-11-25T05:22:47.795Z,3.50
2022-11-25T05:25:32.686Z,4.18
2022-11-25T05:28:17.924Z,3.55
2022-11-25T05:31:02.978Z,3.17
2022-11-25T05:33:48.080Z,3.90
2022-11-25T05:36:33.457Z,3.92
2022-11-25T05:39:19.334Z,4.68
2022-11-25T05:42:04.549Z,4.00
2022-11-25T05:44:49.635Z,4.07
2022-11-25T05:47:34.583Z,3.50
2022-11-25T05:50:19.652Z,4.00
2022-11-25T05:53:05.490Z,3.63
2022-11-25T05:55:56.208Z,3.63
2022-11-25T05:58:41.643Z,2.90
2022-11-25T06:01:27.206Z,2.90
2022-11-25T06:04:12.273Z,2.42
2022-11-25T06:06:57.227Z,2.83
2022-11-25T06:09:42.507Z,2.60
2022-11-25T06:12:27.981Z,2.30
2022-11-25T06:15:13.241Z,3.58
2022-11-25T06:17:58.357Z,3.03
2022-11-25T06:20:43.675Z,3.13
2022-11-25T06:23:29.019Z,2.78
2022-11-25T06:26:22.043Z,3.08
2022-11-25T06:29:07.304Z,2.95
2022-11-25T06:31:52.480Z,2.80
2022-11-25T06:34:41.956Z,3.75
2022-11-25T06:37:27.193Z,3.20
2022-11-25T06:40:13.081Z,3.35
2022-11-25T06:42:58.703Z,4.00
2022-11-25T06:45:43.708Z,3.67
2022-11-25T06:48:28.682Z,3.08
2022-11-25T06:51:15.349Z,3.42
2022-11-25T06:54:00.641Z,3.45
2022-11-25T06:56:51.491Z,2.88
2022-11-25T06:59:37.064Z,3.08
2022-11-25T07:02:22.073Z,2.15
2022-11-25T07:05:07.803Z,2.40
2022-11-25T07:07:52.819Z,3.65
2022-11-25T07:10:38.069Z,3.25
2022-11-25T07:13:23.003Z,3.25
2022-11-25T07:16:08.297Z,2.45
2022-11-25T07:18:53.966Z,3.00
2022-11-25T07:21:39.268Z,3.50
2022-11-25T07:24:24.356Z,2.70
2022-11-25T07:27:09.679Z,2.95
2022-11-25T07:30:29.053Z,3.00
2022-11-25T07:33:00.332Z,3.28
2022-11-25T07:35:45.495Z,3.33
2022-11-25T07:38:31.475Z,3.33
2022-11-25T07:41:22.707Z,5.57
2022-11-25T07:44:08.985Z,6.85
2022-11-25T07:46:54.020Z,7.57
2022-11-25T07:49:39.463Z,6.10
2022-11-25T07:52:24.493Z,5.45
2022-11-25T07:55:09.849Z,4.55
2022-11-25T07:57:55.023Z,6.38
2022-11-25T08:00:40.140Z,5.47
2022-11-25T08:03:25.208Z,5.53
2022-11-25T08:06:13.171Z,5.28
2022-11-25T08:08:58.584Z,4.75
2022-11-25T08:11:43.599Z,5.38
2022-11-25T08:14:28.497Z,4.50
2022-11-25T08:17:13.885Z,3.85
2022-11-25T08:19:59.208Z,4.28
2022-11-25T08:22:44.652Z,2.97
2022-11-25T08:25:31.807Z,3.60
2022-11-25T08:28:17.093Z,3.63
2022-11-25T08:31:07.871Z,4.45
2022-11-25T08:33:54.572Z,4.45
2022-11-25T08:36:42.538Z,4.18
2022-11-25T08:42:37.275Z,6.40
2022-11-25T08:45:22.347Z,5.68
2022-11-25T08:48:07.639Z,5.15
2022-11-25T08:50:54.517Z,4.80
2022-11-25T08:53:40.938Z,4.72
2022-11-25T08:56:26.916Z,6.72
2022-11-25T08:59:13.290Z,4.03
2022-11-25T09:01:58.639Z,5.05
2022-11-25T09:04:44.053Z,5.60
2022-11-25T09:07:30.823Z,3.58
2022-11-25T09:10:17.645Z,4.85
2022-11-25T09:13:02.796Z,6.55
2022-11-25T09:15:48.092Z,5.82
2022-11-25T09:18:35.240Z,7.03
2022-11-25T09:21:20.199Z,4.29
2022-11-25T09:24:05.333Z,3.55
2022-11-25T09:26:51.042Z,3.60
2022-11-25T09:29:36.779Z,4.13
2022-11-25T09:32:22.147Z,3.20
2022-11-25T09:35:07.653Z,3.30
2022-11-25T09:37:52.983Z,4.03
2022-11-25T09:41:16.071Z,3.38
2022-11-25T09:44:46.911Z,2.60
2022-11-25T09:47:35.164Z,4.05
2022-11-25T09:50:45.491Z,4.25
2022-11-25T09:53:59.624Z,3.58
2022-11-25T09:56:53.831Z,2.60
2022-11-25T09:59:45.252Z,3.70
2022-11-25T10:03:23.980Z,3.45
2022-11-25T10:06:20.522Z,3.45
2022-11-25T10:09:13.921Z,3.30
2022-11-25T10:12:06.117Z,2.60
2022-11-25T10:15:00.840Z,2.80
2022-11-25T10:17:52.123Z,3.05
2022-11-25T10:20:41.361Z,3.35
2022-11-25T10:23:35.298Z,3.57
2022-11-25T10:26:27.080Z,5.05
2022-11-25T10:29:15.017Z,2.88
2022-11-25T10:32:16.058Z,2.88
2022-11-25T10:35:11.681Z,3.47
2022-11-25T10:38:00.046Z,3.40
2022-11-25T10:40:48.784Z,3.58
2022-11-25T10:43:39.014Z,3.47
2022-11-25T10:47:04.999Z,3.22
2022-11-25T10:50:24.962Z,3.67
2022-11-25T10:53:17.102Z,2.50
2022-11-25T10:56:11.144Z,3.53
2022-11-25T10:58:56.195Z,2.38
2022-11-25T11:01:41.053Z,3.40
2022-11-25T11:04:26.107Z,2.67
2022-11-25T11:07:14.119Z,2.40
2022-11-25T11:10:22.753Z,2.88
2022-11-25T11:13:20.070Z,3.80
2022-11-25T11:16:26.452Z,3.50
2022-11-25T11:19:29.270Z,3.17
2022-11-25T11:22:17.245Z,2.58
2022-11-25T11:25:23.318Z,7.78
2022-11-25T11:28:29.024Z,2.95
2022-11-25T11:31:26.342Z,3.05
2022-11-25T11:34:36.777Z,3.47
2022-11-25T11:37:44.196Z,3.15
2022-11-25T11:40:35.620Z,2.70
2022-11-25T11:43:35.903Z,2.88
2022-11-25T11:46:34.218Z,3.10
2022-11-25T11:49:34.757Z,3.05
2022-11-25T11:52:23.022Z,2.78
2022-11-25T11:55:28.674Z,2.28
2022-11-25T11:58:25.553Z,2.20
2022-11-25T12:01:22.179Z,2.67
2022-11-25T12:04:28.475Z,2.15
2022-11-25T12:07:47.712Z,3.00
2022-11-25T12:10:53.046Z,3.67
2022-11-25T12:14:07.129Z,3.53
2022-11-25T12:17:02.031Z,2.88
2022-11-25T12:20:07.114Z,3.13
2022-11-25T12:23:04.009Z,2.47
2022-11-25T12:25:51.940Z,3.25
2022-11-25T12:29:09.796Z,2.78
2022-11-25T12:32:03.539Z,2.50
2022-11-25T12:35:15.717Z,2.83
2022-11-25T12:38:38.552Z,2.17
2022-11-25T12:41:47.066Z,2.92
2022-11-25T12:44:51.140Z,2.90
2022-11-25T12:47:36.117Z,2.20
2022-11-25T12:50:54.017Z,4.25
2022-11-25T12:53:54.899Z,2.50
2022-11-25T12:56:58.436Z,2.35
2022-11-25T13:00:17.547Z,2.15
2022-11-25T13:03:12.323Z,2.28
2022-11-25T13:06:38.725Z,2.58
2022-11-25T13:09:44.582Z,2.05
2022-11-25T13:12:33.244Z,5.20
2022-11-25T13:15:19.014Z,2.65
2022-11-25T13:18:12.598Z,3.08
2022-11-25T13:21:06.868Z,2.53
2022-11-25T13:23:57.225Z,2.50
2022-11-25T13:26:49.616Z,3.38
2022-11-25T13:29:53.057Z,2.90
2022-11-25T13:32:40.538Z,2.72
2022-11-25T13:35:34.641Z,2.55
2022-11-25T13:38:57.708Z,2.42
2022-11-25T13:41:49.441Z,2.85
2022-11-25T13:44:48.766Z,1.80
2022-11-25T13:47:41.210Z,2.30
2022-11-25T13:50:41.936Z,2.58
2022-11-25T13:53:35.835Z,2.22
2022-11-25T13:56:20.820Z,1.92
2022-11-25T13:59:11.996Z,2.10
2022-11-25T14:02:29.208Z,1.77
2022-11-25T14:05:33.460Z,1.88
2022-11-25T14:08:33.270Z,2.30
2022-11-25T14:11:40.220Z,2.20
2022-11-25T14:14:49.976Z,1.55
2022-11-25T14:17:41.696Z,2.58
2022-11-25T14:20:55.819Z,2.08
2022-11-25T14:24:00.529Z,2.28
2022-11-25T14:26:50.685Z,1.83
2022-11-25T14:29:40.436Z,2.47
2022-11-25T14:32:31.805Z,2.95
2022-11-25T14:35:33.786Z,3.10
2022-11-25T14:38:32.803Z,2.30
2022-11-25T14:41:23.805Z,3.20
2022-11-25T14:44:21.720Z,2.17
2022-11-25T14:47:06.955Z,2.13
2022-11-25T14:50:18.842Z,2.40
2022-11-25T14:53:00.245Z,2.33
2022-11-25T14:55:48.627Z,2.30
2022-11-25T14:58:34.087Z,2.22
2022-11-25T15:01:27.805Z,2.55
2022-11-25T15:04:12.849Z,2.13
2022-11-25T15:07:01.454Z,2.45
2022-11-25T15:09:46.602Z,2.92
2022-11-25T15:12:33.043Z,3.03
2022-11-25T15:15:18.273Z,2.20
2022-11-25T15:18:15.459Z,2.38
2022-11-25T15:21:00.772Z,3.13
2022-11-25T15:23:45.990Z,2.75
2022-11-25T15:26:34.537Z,2.97
2022-11-25T15:29:20.253Z,2.65
2022-11-25T15:32:05.824Z,2.75
2022-11-25T15:34:52.878Z,3.08
2022-11-25T15:37:38.115Z,2.85
2022-11-25T15:40:36.829Z,3.92
2022-11-25T15:43:29.705Z,4.35
2022-11-25T15:46:15.855Z,3.35
2022-11-25T15:49:07.816Z,3.42
2022-11-25T15:51:42.192Z,2.80
2022-11-25T15:54:44.312Z,3.35
2022-11-25T15:57:36.785Z,2.63
2022-11-25T16:00:23.556Z,2.50
2022-11-25T16:03:23.048Z,2.72
2022-11-25T16:06:26.255Z,3.05
2022-11-25T16:09:21.403Z,3.63
2022-11-25T16:12:07.429Z,2.80
2022-11-25T16:14:52.670Z,2.92
2022-11-25T16:17:37.843Z,3.33
2022-11-25T16:20:24.873Z,3.83
2022-11-25T16:23:13.525Z,3.65
2022-11-25T16:26:05.360Z,3.53
2022-11-25T16:28:58.853Z,3.92
2022-11-25T16:31:44.699Z,4.22
2022-11-25T16:34:30.821Z,3.65
2022-11-25T16:37:16.236Z,3.83
2022-11-25T16:40:01.676Z,3.83
2022-11-25T16:42:48.936Z,3.38
2022-11-25T16:45:33.953Z,2.83
2022-11-25T16:48:23.830Z,3.45
2022-11-25T16:51:29.370Z,3.38
2022-11-25T16:54:14.546Z,2.83
2022-11-25T16:57:00.317Z,2.67
2022-11-25T16:59:48.145Z,3.47
2022-11-25T17:02:33.632Z,3.67
2022-11-25T17:05:22.094Z,3.03
2022-11-25T17:08:07.061Z,3.53
2022-11-25T17:10:57.623Z,3.90
2022-11-25T17:13:46.238Z,3.88
2022-11-25T17:16:31.559Z,4.45
2022-11-25T17:19:17.151Z,4.00
2022-11-25T17:22:01.965Z,4.68
2022-11-25T17:24:47.992Z,4.85
2022-11-25T17:27:33.753Z,6.15
2022-11-25T17:30:27.507Z,6.13
2022-11-25T17:33:20.142Z,5.55
2022-11-25T17:36:06.127Z,5.57
2022-11-25T17:38:51.082Z,5.55
2022-11-25T17:41:41.407Z,6.20
2022-11-25T17:44:28.710Z,7.25
2022-11-25T17:47:16.549Z,8.65
2022-11-25T17:50:01.745Z,8.18
2022-11-25T17:52:46.994Z,8.00
2022-11-25T17:55:33.084Z,12.52
2022-11-25T17:58:19.209Z,12.35
2022-11-25T18:01:04.672Z,12.90
2022-11-25T18:03:52.877Z,12.27
2022-11-25T18:06:38.107Z,11.82
2022-11-25T18:09:23.420Z,12.32
2022-11-25T18:12:30.699Z,10.55
2022-11-25T18:15:18.973Z,9.60
2022-11-25T18:18:11.962Z,8.48
2022-11-25T18:20:57.418Z,7.40
2022-11-25T18:23:43.707Z,7.17
2022-11-25T18:26:28.668Z,7.13
2022-11-25T18:29:40.174Z,6.80
2022-11-25T18:32:25.764Z,6.68
2022-11-25T18:35:24.357Z,5.88
2022-11-25T18:38:10.258Z,7.70
2022-11-25T18:40:56.419Z,8.77
2022-11-25T18:43:41.306Z,7.88
2022-11-25T18:46:26.799Z,6.60
2022-11-25T18:49:13.595Z,8.27
2022-11-25T18:51:58.558Z,8.02
2022-11-25T18:54:43.604Z,9.88
2022-11-25T18:57:28.722Z,10.50
2022-11-25T19:00:34.250Z,12.00
2022-11-25T19:03:22.581Z,14.50
2022-11-25T19:06:15.117Z,15.27
2022-11-25T19:09:00.368Z,12.85
2022-11-25T19:11:49.539Z,12.57
2022-11-25T19:14:41.828Z,10.65
2022-11-25T19:17:27.028Z,12.00
2022-11-25T19:20:18.346Z,12.32
2022-11-25T19:23:30.905Z,15.93
2022-11-25T19:26:38.971Z,19.30
2022-11-25T19:29:42.560Z,16.30
2022-11-25T19:32:29.693Z,14.90
2022-11-25T19:35:18.901Z,12.25
2022-11-25T19:38:25.985Z,11.82
2022-11-25T19:41:11.464Z,12.35
2022-11-25T19:43:56.836Z,11.25
2022-11-25T19:47:13.714Z,11.43
2022-11-25T19:49:55.953Z,10.15
2022-11-25T19:52:41.336Z,14.13
2022-11-25T19:55:32.277Z,15.38
2022-11-25T19:58:17.739Z,13.15
2022-11-25T20:01:06.019Z,12.30
2022-11-25T20:03:51.532Z,13.68
2022-11-25T20:06:36.757Z,10.88
2022-11-25T20:09:21.955Z,8.93
2022-11-25T20:12:24.907Z,7.97
2022-11-25T20:15:11.356Z,9.48
2022-11-25T20:18:00.242Z,10.63
2022-11-25T20:20:48.535Z,10.88
2022-11-25T20:23:43.395Z,11.20
2022-11-25T20:26:36.423Z,12.77
2022-11-25T20:29:26.084Z,13.25
2022-11-25T20:32:19.599Z,15.07
2022-11-25T20:35:04.847Z,16.05
2022-11-25T20:37:57.896Z,18.52
2022-11-25T20:40:44.924Z,16.65
2022-11-25T20:43:50.230Z,15.00
2022-11-25T20:46:35.274Z,15.13
2022-11-25T20:49:23.737Z,15.52
2022-11-25T20:52:18.353Z,15.77
2022-11-25T20:55:16.610Z,17.88
2022-11-25T20:58:03.293Z,21.70
2022-11-25T21:00:52.885Z,20.30
2022-11-25T21:03:43.379Z,20.27
2022-11-25T21:06:30.439Z,19.20
2022-11-25T21:09:19.907Z,18.27
2022-11-25T21:12:06.748Z,21.03
2022-11-25T21:14:51.922Z,20.33
2022-11-25T21:17:36.985Z,20.98
2022-11-25T21:20:22.115Z,18.20
2022-11-25T21:23:16.964Z,15.70
2022-11-25T21:26:20.291Z,15.18
2022-11-25T21:29:05.655Z,18.38
2022-11-25T21:31:50.855Z,17.83
2022-11-25T21:34:36.404Z,18.38
2022-11-25T21:37:29.785Z,14.95
2022-11-25T21:40:26.083Z,14.60
2022-11-25T21:43:21.816Z,13.73
2022-11-25T21:46:12.747Z,14.73
2022-11-25T21:48:58.011Z,15.48
2022-11-25T21:51:42.844Z,17.67
2022-11-25T21:54:27.791Z,17.45
2022-11-25T21:57:27.914Z,22.02
2022-11-25T22:00:22.970Z,38.70
2022-11-25T22:03:15.711Z,29.58
2022-11-25T22:06:00.777Z,14.80
2022-11-25T22:08:45.931Z,11.43
2022-11-25T22:11:37.557Z,11.55
2022-11-25T22:14:28.806Z,9.68
2022-11-25T22:17:18.129Z,12.18
2022-11-25T22:20:04.789Z,14.68
2022-11-25T22:22:49.655Z,15.70
2022-11-25T22:25:34.983Z,18.10
2022-11-25T22:28:24.444Z,18.17
2022-11-25T22:31:19.371Z,13.20
2022-11-25T22:34:04.263Z,11.63
2022-11-25T22:36:49.352Z,13.40
2022-11-25T22:39:34.594Z,12.75
2022-11-25T22:42:25.624Z,10.95
2022-11-25T22:45:30.122Z,11.38
2022-11-25T22:48:18.383Z,16.60
2022-11-25T22:51:04.381Z,19.05
2022-11-25T22:53:49.812Z,16.92
2022-11-25T22:56:34.783Z,19.33
2022-11-25T22:59:19.604Z,20.02
2022-11-25T23:02:05.024Z,19.70
2022-11-25T23:04:55.632Z,21.98
2022-11-25T23:07:40.591Z,20.75
2022-11-25T23:10:29.755Z,17.23
2022-11-25T23:13:17.104Z,15.73
2022-11-25T23:16:04.289Z,20.52
2022-11-25T23:18:49.733Z,17.10
2022-11-25T23:21:35.135Z,19.40
2022-11-25T23:24:20.203Z,16.90
2022-11-25T23:27:05.497Z,14.88
2022-11-25T23:29:50.516Z,17.98
2022-11-25T23:32:35.784Z,19.40
2022-11-25T23:35:34.714Z,18.42
2022-11-25T23:38:24.178Z,16.88
2022-11-25T23:41:14.702Z,15.90
2022-11-25T23:44:13.794Z,14.88
2022-11-25T23:47:02.947Z,14.50
2022-11-25T23:49:52.289Z,13.75
2022-11-25T23:52:37.343Z,15.10
2022-11-25T23:55:26.783Z,12.77
